createdAt,value
2023-03-30T00:00:27.221Z,1.55
2023-03-30T00:04:30.302Z,1.52
2023-03-30T00:08:33.319Z,1.08
2023-03-30T00:12:35.410Z,1.38
2023-03-30T00:16:37.557Z,1.20
2023-03-30T00:20:43.005Z,1.50
2023-03-30T00:24:45.377Z,1.10
2023-03-30T00:28:47.430Z,1.17
2023-03-30T00:32:49.469Z,0.95
2023-03-30T00:36:53.346Z,1.98
2023-03-30T00:40:58.251Z,1.10
2023-03-30T00:45:21.350Z,1.38
2023-03-30T00:49:23.468Z,1.70
2023-03-30T00:53:33.511Z,2.20
2023-03-30T00:57:42.516Z,1.55
2023-03-30T01:01:50.296Z,1.83
2023-03-30T01:05:53.669Z,1.75
2023-03-30T01:09:55.981Z,1.48
2023-03-30T01:14:01.239Z,1.50
2023-03-30T01:18:27.673Z,1.90
2023-03-30T01:22:50.141Z,1.60
2023-03-30T01:26:59.677Z,1.52
2023-03-30T01:31:04.741Z,1.80
2023-03-30T01:35:44.182Z,1.58
2023-03-30T01:39:52.005Z,1.77
2023-03-30T01:44:04.712Z,1.50
2023-03-30T01:48:33.140Z,1.85
2023-03-30T01:52:56.502Z,1.08
2023-03-30T01:57:09.297Z,1.40
2023-03-30T02:01:14.504Z,1.83
2023-03-30T02:05:19.205Z,1.40
2023-03-30T02:09:24.257Z,1.80
2023-03-30T02:13:31.787Z,1.40
2023-03-30T02:17:35.699Z,1.75
2023-03-30T02:21:38.297Z,1.13
2023-03-30T02:25:40.410Z,1.35
2023-03-30T02:29:45.385Z,1.23
2023-03-30T02:33:56.958Z,1.13
2023-03-30T02:38:20.030Z,1.30
2023-03-30T02:42:42.733Z,1.50
2023-03-30T02:46:58.373Z,1.40
2023-03-30T02:51:19.673Z,1.45
2023-03-30T02:56:06.677Z,1.42
2023-03-30T03:00:36.301Z,1.63
2023-03-30T03:04:43.382Z,1.40
2023-03-30T03:08:59.612Z,1.20
2023-03-30T03:13:04.095Z,1.65
2023-03-30T03:17:07.178Z,1.40
2023-03-30T03:21:14.219Z,1.52
2023-03-30T03:25:16.814Z,1.70
2023-03-30T03:29:28.810Z,1.40
2023-03-30T03:33:31.953Z,1.42
2023-03-30T03:37:42.852Z,1.23
2023-03-30T03:41:45.000Z,1.70
2023-03-30T03:45:48.093Z,1.55
2023-03-30T03:49:50.116Z,1.70
2023-03-30T03:53:53.783Z,1.23
2023-03-30T03:57:56.309Z,1.60
2023-03-30T04:01:58.330Z,1.38
2023-03-30T04:06:01.200Z,1.63
2023-03-30T04:10:05.308Z,1.60
2023-03-30T04:18:45.862Z,1.58
2023-03-30T04:23:03.172Z,1.67
2023-03-30T04:27:25.892Z,1.85
2023-03-30T04:31:48.186Z,1.88
2023-03-30T04:36:25.631Z,2.20
2023-03-30T04:40:38.449Z,1.50
2023-03-30T04:45:00.953Z,1.80
2023-03-30T04:49:35.387Z,1.83
2023-03-30T04:53:57.545Z,1.80
2023-03-30T04:58:18.357Z,1.42
2023-03-30T05:02:36.462Z,3.60
2023-03-30T05:07:02.305Z,2.03
2023-03-30T05:11:38.224Z,1.60
2023-03-30T05:16:00.823Z,1.70
2023-03-30T05:20:18.203Z,1.93
2023-03-30T05:24:46.318Z,1.70
2023-03-30T05:28:58.815Z,1.90
2023-03-30T05:33:13.898Z,1.63
2023-03-30T05:37:55.237Z,2.05
2023-03-30T05:42:36.585Z,1.70
2023-03-30T05:46:57.446Z,1.90
2023-03-30T05:51:08.905Z,1.63
2023-03-30T05:55:23.666Z,1.58
2023-03-30T05:59:41.299Z,2.15
2023-03-30T06:04:09.449Z,2.50
2023-03-30T06:08:13.389Z,2.35
2023-03-30T06:12:16.324Z,1.80
2023-03-30T06:16:18.840Z,1.80
2023-03-30T06:20:21.608Z,2.03
2023-03-30T06:24:25.337Z,1.80
2023-03-30T06:28:27.808Z,2.25
2023-03-30T06:32:30.289Z,1.85
2023-03-30T06:36:53.783Z,2.10
2023-03-30T06:40:58.444Z,1.90
2023-03-30T06:45:04.418Z,2.25
2023-03-30T06:49:07.783Z,2.40
2023-03-30T06:53:33.142Z,1.90
2023-03-30T06:57:35.230Z,2.13
2023-03-30T07:01:38.349Z,2.05
2023-03-30T07:06:00.629Z,2.15
2023-03-30T07:10:13.118Z,2.28
2023-03-30T07:14:15.531Z,2.50
2023-03-30T07:18:17.876Z,2.72
2023-03-30T07:22:20.123Z,2.25
2023-03-30T07:26:22.347Z,2.40
2023-03-30T07:30:29.697Z,2.00
2023-03-30T07:34:37.300Z,1.88
2023-03-30T07:38:39.821Z,2.13
2023-03-30T07:42:42.111Z,2.10
2023-03-30T07:46:44.678Z,2.20
2023-03-30T07:51:11.119Z,1.92
2023-03-30T07:59:28.396Z,1.67
2023-03-30T08:03:36.987Z,1.73
2023-03-30T08:07:39.341Z,2.35
2023-03-30T08:11:48.287Z,1.70
2023-03-30T08:15:50.896Z,1.50
2023-03-30T08:19:52.943Z,1.70
2023-03-30T08:23:59.280Z,1.40
2023-03-30T08:28:02.081Z,1.53
2023-03-30T08:32:04.195Z,1.77
2023-03-30T08:36:06.485Z,1.65
2023-03-30T08:40:13.099Z,1.85
2023-03-30T08:44:23.196Z,1.70
2023-03-30T08:48:28.795Z,1.52
2023-03-30T08:52:30.900Z,1.60
2023-03-30T08:56:38.908Z,1.65
2023-03-30T09:00:54.281Z,1.95
2023-03-30T09:05:18.927Z,1.60
2023-03-30T09:09:23.679Z,1.40
2023-03-30T09:13:35.317Z,1.42
2023-03-30T09:18:32.954Z,1.27
2023-03-30T09:22:39.844Z,1.50
2023-03-30T09:26:59.091Z,1.55
2023-03-30T09:31:04.893Z,1.70
2023-03-30T09:35:18.839Z,1.85
2023-03-30T09:39:27.673Z,1.38
2023-03-30T09:43:46.070Z,1.63
2023-03-30T09:47:48.447Z,1.75
2023-03-30T09:51:57.145Z,1.90
2023-03-30T09:56:07.219Z,1.67
2023-03-30T10:00:33.942Z,1.77
2023-03-30T10:05:02.372Z,1.70
2023-03-30T10:09:11.347Z,1.75
2023-03-30T10:13:16.417Z,1.65
2023-03-30T10:17:21.273Z,1.77
2023-03-30T10:21:27.400Z,1.73
2023-03-30T10:25:32.701Z,1.80
2023-03-30T10:29:34.724Z,1.55
2023-03-30T10:33:43.776Z,2.00
2023-03-30T10:37:48.098Z,1.45
2023-03-30T10:41:50.961Z,1.40
2023-03-30T10:45:59.833Z,1.15
2023-03-30T10:50:46.425Z,1.05
2023-03-30T10:55:17.715Z,1.20
2023-03-30T10:59:49.601Z,1.42
2023-03-30T11:04:06.660Z,0.93
2023-03-30T11:08:22.945Z,0.70
2023-03-30T11:12:34.303Z,1.05
2023-03-30T11:16:51.418Z,1.10
2023-03-30T11:21:05.800Z,0.70
2023-03-30T11:25:21.514Z,1.85
2023-03-30T11:29:43.527Z,1.20
2023-03-30T11:33:51.075Z,0.80
2023-03-30T11:38:08.221Z,0.98
2023-03-30T11:42:15.073Z,1.05
2023-03-30T11:46:43.388Z,0.90
2023-03-30T11:51:21.433Z,0.90
2023-03-30T11:55:35.970Z,0.70
2023-03-30T11:59:49.833Z,0.90
2023-03-30T12:04:26.550Z,0.70
2023-03-30T12:08:42.455Z,0.50
2023-03-30T12:12:45.951Z,0.60
2023-03-30T12:16:54.684Z,0.10
2023-03-30T12:21:28.536Z,0.20
2023-03-30T12:25:50.311Z,0.20
2023-03-30T12:34:07.467Z,0.95
2023-03-30T12:38:17.669Z,0.60
2023-03-30T12:42:34.286Z,1.85
2023-03-30T12:46:50.073Z,1.17
2023-03-30T12:51:12.113Z,0.63
2023-03-30T12:55:27.736Z,1.40
2023-03-30T12:59:48.147Z,0.60
2023-03-30T13:03:53.392Z,0.20
2023-03-30T13:07:56.342Z,0.10
2023-03-30T13:11:58.294Z,0.80
2023-03-30T13:16:00.395Z,0.35
2023-03-30T13:20:29.080Z,0.17
2023-03-30T13:24:36.214Z,0.50
2023-03-30T13:29:04.319Z,2.47
2023-03-30T13:33:12.605Z,1.63
2023-03-30T13:37:33.023Z,0.70
2023-03-30T13:41:50.495Z,0.47
2023-03-30T13:46:34.786Z,1.25
2023-03-30T13:50:38.572Z,0.57
2023-03-30T13:54:41.653Z,0.52
2023-03-30T13:58:58.641Z,0.52
2023-03-30T14:03:28.765Z,0.30
2023-03-30T14:07:43.281Z,0.57
2023-03-30T14:11:49.962Z,0.30
2023-03-30T14:15:52.122Z,0.30
2023-03-30T14:20:18.300Z,0.50
2023-03-30T14:24:31.817Z,0.22
2023-03-30T14:28:35.953Z,0.30
2023-03-30T14:32:38.242Z,0.40
2023-03-30T14:36:44.994Z,0.30
2023-03-30T14:40:48.080Z,0.50
2023-03-30T14:44:53.419Z,0.60
2023-03-30T14:48:56.166Z,0.32
2023-03-30T14:52:58.561Z,0.30
2023-03-30T14:57:03.806Z,0.45
2023-03-30T15:01:11.167Z,0.45
2023-03-30T15:05:17.456Z,0.40
2023-03-30T15:09:23.170Z,0.40
2023-03-30T15:13:32.234Z,0.40
2023-03-30T15:17:36.038Z,0.40
2023-03-30T15:21:40.109Z,0.50
2023-03-30T15:25:43.686Z,0.55
2023-03-30T15:29:47.083Z,0.50
2023-03-30T15:33:51.150Z,0.43
2023-03-30T15:37:59.340Z,0.68
2023-03-30T15:42:04.508Z,0.40
2023-03-30T15:46:15.818Z,0.40
2023-03-30T15:50:19.347Z,0.68
2023-03-30T15:54:29.763Z,0.60
2023-03-30T15:58:33.114Z,0.73
2023-03-30T16:02:39.354Z,1.38
2023-03-30T16:06:43.580Z,0.90
2023-03-30T16:10:46.736Z,0.50
2023-03-30T16:14:49.504Z,0.70
2023-03-30T16:18:51.640Z,0.60
2023-03-30T16:22:53.773Z,0.70
2023-03-30T16:26:55.760Z,0.60
2023-03-30T16:31:01.980Z,0.70
2023-03-30T16:35:04.436Z,0.75
2023-03-30T16:39:27.202Z,0.60
2023-03-30T16:43:29.263Z,0.82
2023-03-30T16:47:31.854Z,0.60
2023-03-30T16:51:33.925Z,0.50
2023-03-30T16:55:36.590Z,0.80
2023-03-30T16:59:38.641Z,1.23
2023-03-30T17:03:40.667Z,0.90
2023-03-30T17:07:42.924Z,0.80
2023-03-30T17:11:46.292Z,0.55
2023-03-30T17:15:48.345Z,0.70
2023-03-30T17:19:50.438Z,0.70
2023-03-30T17:23:52.585Z,0.50
2023-03-30T17:27:56.023Z,0.50
2023-03-30T17:31:58.094Z,0.50
2023-03-30T17:36:07.106Z,0.50
2023-03-30T17:40:19.872Z,0.52
2023-03-30T17:44:21.977Z,0.85
2023-03-30T17:48:25.200Z,0.70
2023-03-30T17:52:30.156Z,0.75
2023-03-30T17:56:32.290Z,0.90
2023-03-30T18:00:34.346Z,0.90
2023-03-30T18:04:36.394Z,0.73
2023-03-30T18:08:39.516Z,0.80
2023-03-30T18:12:41.615Z,0.70
2023-03-30T18:16:44.436Z,1.08
2023-03-30T18:20:49.021Z,1.10
2023-03-30T18:24:51.616Z,1.38
2023-03-30T18:28:53.739Z,1.70
2023-03-30T18:32:56.561Z,1.92
2023-03-30T18:36:58.606Z,1.75
2023-03-30T18:41:01.272Z,2.50
2023-03-30T18:45:03.566Z,2.20
2023-03-30T18:49:06.001Z,1.20
2023-03-30T18:53:13.365Z,0.68
2023-03-30T18:57:15.757Z,1.08
2023-03-30T19:01:17.866Z,1.00
2023-03-30T19:05:21.622Z,1.23
2023-03-30T19:09:36.436Z,0.60
2023-03-30T19:13:44.646Z,0.80
2023-03-30T19:17:47.133Z,0.85
2023-03-30T19:21:49.200Z,0.77
2023-03-30T19:25:51.482Z,0.82
2023-03-30T19:29:53.817Z,0.60
2023-03-30T19:33:55.806Z,1.30
2023-03-30T19:37:58.097Z,1.50
2023-03-30T19:42:00.147Z,2.35
2023-03-30T19:46:02.281Z,1.50
2023-03-30T19:50:09.407Z,1.30
2023-03-30T19:54:11.452Z,1.13
2023-03-30T19:58:13.667Z,1.60
2023-03-30T20:02:16.292Z,1.38
2023-03-30T20:06:18.334Z,1.40
2023-03-30T20:10:23.452Z,1.10
2023-03-30T20:14:25.621Z,1.40
2023-03-30T20:18:30.917Z,1.15
2023-03-30T20:22:36.990Z,0.95
2023-03-30T20:26:39.001Z,1.33
2023-03-30T20:30:41.129Z,1.42
2023-03-30T20:34:46.121Z,1.38
2023-03-30T20:38:49.726Z,1.15
2023-03-30T20:42:51.748Z,1.55
2023-03-30T20:46:57.871Z,1.02
2023-03-30T20:51:05.151Z,1.00
2023-03-30T20:55:08.188Z,0.98
2023-03-30T20:59:10.299Z,0.88
2023-03-30T21:03:14.025Z,0.70
2023-03-30T21:07:17.205Z,0.80
2023-03-30T21:11:20.432Z,0.90
2023-03-30T21:15:22.556Z,1.17
2023-03-30T21:19:24.646Z,1.33
2023-03-30T21:23:27.154Z,0.90
2023-03-30T21:27:29.182Z,0.70
2023-03-30T21:31:31.345Z,0.60
2023-03-30T21:35:33.566Z,0.73
2023-03-30T21:39:35.828Z,0.75
2023-03-30T21:43:42.760Z,0.50
2023-03-30T21:47:44.814Z,0.65
2023-03-30T21:51:46.889Z,0.77
2023-03-30T21:55:48.958Z,1.23
2023-03-30T21:59:50.982Z,0.75
2023-03-30T22:03:54.978Z,0.65
2023-03-30T22:07:57.061Z,0.70
2023-03-30T22:11:59.021Z,0.50
2023-03-30T22:16:04.959Z,1.23
2023-03-30T22:20:11.414Z,0.70
2023-03-30T22:24:13.554Z,0.40
2023-03-30T22:28:15.630Z,0.50
2023-03-30T22:32:18.747Z,0.65
2023-03-30T22:36:24.024Z,0.50
2023-03-30T22:40:26.002Z,0.60
2023-03-30T22:44:28.455Z,0.60
2023-03-30T22:48:30.457Z,0.70
2023-03-30T22:52:32.581Z,0.60
2023-03-30T22:56:34.618Z,0.70
2023-03-30T23:00:37.092Z,0.40
2023-03-30T23:04:39.991Z,0.30
2023-03-30T23:08:42.454Z,0.60
2023-03-30T23:12:44.929Z,0.30
2023-03-30T23:16:46.967Z,0.60
2023-03-30T23:20:49.044Z,0.98
2023-03-30T23:24:51.268Z,0.77
2023-03-30T23:28:53.292Z,0.80
2023-03-30T23:32:55.880Z,0.98
2023-03-30T23:36:59.620Z,1.33
2023-03-30T23:41:01.819Z,0.90
2023-03-30T23:45:04.107Z,1.00
2023-03-30T23:49:06.223Z,0.73
2023-03-30T23:53:09.334Z,0.90
2023-03-30T23:57:11.424Z,0.80
